This is the latest recevied weather packets stored in our database for station/object MKSRDG. If no packets are shown the sender has not sent any weather packets the latest 10 day(s).
| Time | Temp. | Humidity | Pressure | Rain* | Wind** | Luminosity | Snow |
|---|---|---|---|---|---|---|---|
| 1777507801 | 16.67° C | 57% | 1020.2 hPa | 0 mm | - | 540 W/m² | - |
| 1777506902 | 16.67° C | 56% | 1020.4 hPa | 0 mm | - | 585 W/m² | - |
| 1777506002 | 16.67° C | 56% | 1020.5 hPa | 0 mm | - | 629 W/m² | - |
| 1777505102 | 16.67° C | 57% | 1020.7 hPa | 0 mm | - | 671 W/m² | - |
| 1777504202 | 16.67° C | 57% | 1020.9 hPa | 0 mm | - | 710 W/m² | - |
| 1777503302 | 16.11° C | 59% | 1021.1 hPa | 0 mm | - | 747 W/m² | - |
| 1777502402 | 16.11° C | 57% | 1021.3 hPa | 0 mm | - | 782 W/m² | - |
| 1777501502 | 16.11° C | 61% | 1021.4 hPa | 0 mm | - | 814 W/m² | - |
| 1777500602 | 16.11° C | 60% | 1021.5 hPa | 0 mm | - | 844 W/m² | - |
| 1777499702 | 16.11° C | 60% | 1021.6 hPa | 0 mm | - | 865 W/m² | - |
| 1777498802 | 15.56° C | 59% | 1021.7 hPa | 0 mm | - | 884 W/m² | - |
| 1777497902 | 15.56° C | 60% | 1021.8 hPa | 0 mm | - | 904 W/m² | - |
| 1777497002 | 15.56° C | 60% | 1021.9 hPa | 0 mm | - | 923 W/m² | - |
| 1777496102 | 15.56° C | 61% | 1021.9 hPa | 0 mm | - | 932 W/m² | - |
| 1777495202 | 15° C | 62% | 1022 hPa | 0 mm | - | 940 W/m² | - |
| 1777494302 | 14.44° C | 64% | 1022.1 hPa | 0 mm | - | 942 W/m² | - |
| 1777493402 | 14.44° C | 65% | 1022.3 hPa | 0 mm | - | 940 W/m² | - |
| 1777492502 | 14.44° C | 68% | 1022.4 hPa | 0 mm | - | 940 W/m² | - |
| 1777491602 | 13.89° C | 65% | 1022.6 hPa | 0 mm | - | 930 W/m² | - |
| 1777490702 | 13.33° C | 70% | 1022.8 hPa | 0 mm | - | 925 W/m² | - |
| 1777489802 | 13.33° C | 70% | 1022.9 hPa | 0 mm | - | 912 W/m² | - |
| 1777488902 | 12.78° C | 71% | 1023 hPa | 0 mm | - | 893 W/m² | - |
| 1777488002 | 12.22° C | 71% | 1023.2 hPa | 0 mm | - | 865 W/m² | - |
| 1777487102 | 11.67° C | 75% | 1023.3 hPa | 0 mm | - | 847 W/m² | - |
| 1777486202 | 11.11° C | 76% | 1023.2 hPa | 0 mm | - | 814 W/m² | - |
* Rain latest hour (hover to see other rain measurements)
** Current wind speed in m/s (hover to see current wind gust speed)